Time;durP1;ratioP1;P1;durP2;ratioP2;P2;SDS_P1;SDS_P2;PMS_P1;PMS_P2;Temp;Humidity;BMP_temperature;BMP_pressure;BME280_temperature;BME280_humidity;BME280_pressure;Samples;Min_cycle;Max_cycle;Signal;HPM_P1;HPM_P2
2023/03/10 00:01:23;;;;;;;2.03;0.67;;;10.20;99.90;;;;;;5114810;28;20211;-49
2023/03/10 00:03:49;;;;;;;1.67;0.43;;;10.20;99.90;;;;;;5114804;28;20180;-49
2023/03/10 00:06:17;;;;;;;1.40;0.80;;;10.20;99.90;;;;;;5115048;28;20262;-51
2023/03/10 00:08:43;;;;;;;3.73;0.70;;;10.30;99.90;;;;;;5096579;28;20217;-50
2023/03/10 00:11:09;;;;;;;1.23;0.50;;;10.30;99.90;;;;;;5114717;28;20231;-49
2023/03/10 00:13:35;;;;;;;1.03;0.57;;;10.30;99.90;;;;;;5114866;28;20263;-50
2023/03/10 00:16:00;;;;;;;1.33;0.60;;;10.30;99.90;;;;;;5114652;28;20224;-47
2023/03/10 00:18:26;;;;;;;0.40;0.30;;;10.30;99.90;;;;;;5115093;28;20201;-47
2023/03/10 00:20:53;;;;;;;3.20;0.80;;;11.00;99.90;;;;;;5096212;28;20217;-49
2023/03/10 00:23:20;;;;;;;5.13;0.70;;;10.30;99.90;;;;;;5114466;28;20200;-46
2023/03/10 00:26:01;;;;;;;1.07;0.60;;;10.30;99.90;;;;;;5114693;28;20233;-48
2023/03/10 00:28:27;;;;;;;1.97;0.70;;;10.30;99.90;;;;;;5115138;28;20169;-47
2023/03/10 00:31:01;;;;;;;1.30;0.50;;;10.30;99.90;;;;;;5114662;28;20205;-48
2023/03/10 00:33:29;;;;;;;1.00;0.60;;;10.30;99.90;;;;;;5115091;28;20541;-49
2023/03/10 00:36:10;;;;;;;2.63;0.70;;;10.30;99.90;;;;;;5114290;28;20268;-43
2023/03/10 00:38:36;;;;;;;1.53;0.57;;;10.30;99.90;;;;;;5114272;28;20185;-43
2023/03/10 00:41:13;;;;;;;1.47;0.70;;;10.40;99.90;;;;;;5114154;28;20197;-45
2023/03/10 00:43:39;;;;;;;3.53;0.97;;;10.40;99.90;;;;;;5114522;28;20172;-44
2023/03/10 00:46:05;;;;;;;3.07;0.87;;;10.40;99.90;;;;;;5114327;28;20177;-43
2023/03/10 00:48:31;;;;;;;3.20;0.87;;;10.40;99.90;;;;;;5114057;28;20192;-45
2023/03/10 00:50:57;;;;;;;3.60;0.80;;;10.30;99.90;;;;;;5114814;28;20555;-42
2023/03/10 00:53:23;;;;;;;2.10;1.00;;;10.30;99.90;;;;;;5114230;28;20588;-44
2023/03/10 00:56:06;;;;;;;1.33;0.70;;;10.30;99.90;;;;;;5114152;28;20193;-44
2023/03/10 00:58:33;;;;;;;4.70;0.77;;;10.30;99.90;;;;;;5113815;28;20271;-45
2023/03/10 01:01:00;;;;;;;5.87;1.00;;;10.30;99.90;;;;;;5113919;28;20212;-44
2023/03/10 01:03:26;;;;;;;2.27;0.80;;;10.30;99.90;;;;;;5113884;28;20636;-44
2023/03/10 01:05:53;;;;;;;6.67;1.00;;;10.20;99.90;;;;;;5113878;28;20181;-46
2023/03/10 01:08:19;;;;;;;4.13;1.03;;;10.20;99.90;;;;;;5113825;28;20644;-46
2023/03/10 01:10:45;;;;;;;0.90;0.80;;;10.20;99.90;;;;;;5113734;28;20204;-46
2023/03/10 01:13:12;;;;;;;1.40;0.80;;;10.10;99.90;;;;;;5113809;28;20181;-46
2023/03/10 01:15:38;;;;;;;1.40;0.80;;;10.10;99.90;;;;;;5114333;28;20178;-46
2023/03/10 01:18:04;;;;;;;1.90;0.90;;;10.10;99.90;;;;;;5114192;28;20209;-48
2023/03/10 01:20:31;;;;;;;2.30;0.90;;;10.10;99.90;;;;;;5114232;28;20205;-48
2023/03/10 01:22:57;;;;;;;1.53;0.80;;;10.10;99.90;;;;;;5113904;28;20193;-48
2023/03/10 01:25:23;;;;;;;2.67;1.00;;;10.10;99.90;;;;;;5113920;28;20220;-47
2023/03/10 01:27:48;;;;;;;2.83;1.10;;;10.10;99.90;;;;;;5113898;28;20266;-46
2023/03/10 01:30:14;;;;;;;1.60;0.90;;;10.00;99.90;;;;;;5113723;28;20255;-46
2023/03/10 01:32:40;;;;;;;2.30;1.30;;;10.00;99.90;;;;;;5113826;28;20195;-47
2023/03/10 01:35:06;;;;;;;2.03;0.90;;;10.00;99.90;;;;;;5113535;28;20189;-48
2023/03/10 01:37:32;;;;;;;2.47;1.03;;;10.00;99.90;;;;;;5113749;28;20208;-47
2023/03/10 01:39:57;;;;;;;11.40;1.10;;;10.00;99.90;;;;;;5113733;28;20847;-45
2023/03/10 01:42:23;;;;;;;2.50;1.00;;;10.00;99.90;;;;;;5113786;28;20258;-46
2023/03/10 01:45:28;;;;;;;4.87;0.87;;;10.00;99.90;;;;;;5113775;28;20597;-46
2023/03/10 01:47:54;;;;;;;3.70;1.00;;;9.90;99.90;;;;;;5117140;28;20656;-46
2023/03/10 01:50:20;;;;;;;1.03;0.80;;;9.90;99.90;;;;;;5117627;28;20209;-46
2023/03/10 01:52:55;;;;;;;1.10;0.60;;;9.90;99.90;;;;;;5099193;28;20220;-46
2023/03/10 01:55:25;;;;;;;1.40;0.60;;;9.80;99.90;;;;;;5117611;28;20172;-46
2023/03/10 01:57:54;;;;;;;1.30;0.40;;;9.70;99.90;;;;;;5117257;28;20186;-46
2023/03/10 02:00:21;;;;;;;0.57;0.40;;;9.70;99.90;;;;;;5117422;28;20212;-47
2023/03/10 02:03:08;;;;;;;1.40;0.43;;;9.70;99.90;;;;;;5117409;28;20177;-47
2023/03/10 02:05:42;;;;;;;3.30;0.80;;;9.60;99.90;;;;;;5117400;28;20176;-48
2023/03/10 02:08:09;;;;;;;2.07;0.43;;;9.60;99.90;;;;;;5117143;28;20172;-48
2023/03/10 02:10:35;;;;;;;1.03;0.50;;;10.00;99.90;;;;;;5117140;28;20278;-47
2023/03/10 02:13:00;;;;;;;0.50;0.50;;;9.60;99.90;;;;;;5117022;28;20201;-48
2023/03/10 02:15:27;;;;;;;1.53;0.50;;;9.60;99.90;;;;;;5117726;28;20207;-47
2023/03/10 02:17:53;;;;;;;0.70;0.50;;;9.60;99.90;;;;;;5120245;28;20677;-47
2023/03/10 02:20:38;;;;;;;0.83;0.40;;;9.60;99.90;;;;;;5119004;28;20193;-48
2023/03/10 02:23:04;;;;;;;0.70;0.40;;;9.50;99.90;;;;;;5116789;28;20609;-48
2023/03/10 02:25:45;;;;;;;1.30;0.50;;;9.50;99.90;;;;;;5116785;28;20209;-47
2023/03/10 02:28:11;;;;;;;1.17;0.40;;;9.50;99.90;;;;;;5117053;28;20681;-46
2023/03/10 02:30:41;;;;;;;0.97;0.60;;;9.50;99.90;;;;;;5116574;28;20276;-47
2023/03/10 02:33:12;;;;;;;3.33;0.70;;;9.50;99.90;;;;;;5116881;28;20180;-48
2023/03/10 02:35:38;;;;;;;4.13;0.73;;;9.50;99.90;;;;;;5116577;28;20170;-48
2023/03/10 02:38:04;;;;;;;2.07;0.70;;;9.50;99.90;;;;;;5116463;28;20214;-46
2023/03/10 02:40:42;;;;;;;1.73;0.57;;;9.50;99.90;;;;;;5116666;28;20206;-47
2023/03/10 02:43:17;;;;;;;5.33;0.90;;;9.50;99.90;;;;;;5116471;28;20169;-48
2023/03/10 02:45:45;;;;;;;1.80;1.00;;;9.50;99.90;;;;;;5116437;28;20165;-47
2023/03/10 02:48:14;;;;;;;3.87;1.23;;;9.50;99.90;;;;;;5116254;28;20194;-47
2023/03/10 02:50:42;;;;;;;2.67;1.00;;;9.50;99.90;;;;;;5116290;28;20282;-47
2023/03/10 02:53:17;;;;;;;2.27;0.80;;;9.60;99.90;;;;;;5116486;28;20178;-48
2023/03/10 02:55:43;;;;;;;1.27;0.70;;;9.60;99.90;;;;;;5097948;28;20721;-48
2023/03/10 02:58:09;;;;;;;3.40;1.13;;;9.60;99.90;;;;;;5115120;28;20203;-47
2023/03/10 03:00:40;;;;;;;4.43;0.60;;;9.60;99.90;;;;;;5116198;28;20235;-49
2023/03/10 03:03:06;;;;;;;2.43;1.00;;;9.60;99.90;;;;;;5116265;28;20186;-49
2023/03/10 03:05:32;;;;;;;2.43;0.80;;;9.60;99.90;;;;;;5116177;28;20638;-48
2023/03/10 03:07:58;;;;;;;3.80;1.00;;;9.60;99.90;;;;;;5115963;28;20287;-48
2023/03/10 03:10:24;;;;;;;1.63;0.90;;;9.60;99.90;;;;;;5116026;28;20598;-49
2023/03/10 03:12:50;;;;;;;3.97;1.00;;;9.60;99.90;;;;;;5116174;28;20554;-50
2023/03/10 03:15:16;;;;;;;2.27;0.90;;;9.60;99.90;;;;;;5116028;28;20200;-50
2023/03/10 03:17:42;;;;;;;3.80;1.20;;;9.60;99.90;;;;;;5115961;28;20233;-51
2023/03/10 03:20:13;;;;;;;3.27;1.27;;;9.60;99.90;;;;;;5115864;28;20288;-51
2023/03/10 03:22:40;;;;;;;5.30;1.20;;;9.60;99.90;;;;;;5115721;28;20199;-50
2023/03/10 03:25:06;;;;;;;7.43;1.17;;;9.50;99.90;;;;;;5128973;22;20313;-49
2023/03/10 03:27:31;;;;;;;4.37;1.20;;;9.50;99.90;;;;;;5115819;28;20272;-48
2023/03/10 03:29:58;;;;;;;7.87;1.40;;;9.50;99.90;;;;;;5115435;28;20236;-48
2023/03/10 03:32:24;;;;;;;2.97;1.07;;;9.50;99.90;;;;;;5115780;28;20188;-46
2023/03/10 03:34:49;;;;;;;2.10;0.90;;;9.50;99.90;;;;;;5115395;28;20186;-47
2023/03/10 03:37:15;;;;;;;5.60;1.37;;;9.50;99.90;;;;;;5115880;28;20201;-50
2023/03/10 03:39:40;;;;;;;1.30;0.77;;;9.50;99.90;;;;;;5116625;28;20207;-48
2023/03/10 03:42:07;;;;;;;4.20;0.90;;;9.50;99.90;;;;;;5115975;28;20178;-47
2023/03/10 03:44:32;;;;;;;4.40;0.73;;;9.50;99.90;;;;;;5116469;28;20179;-48
2023/03/10 03:46:58;;;;;;;2.10;0.77;;;9.40;99.90;;;;;;5116221;28;20177;-48
2023/03/10 03:49:23;;;;;;;5.47;1.20;;;9.40;99.90;;;;;;5116228;28;20176;-46
2023/03/10 03:51:49;;;;;;;5.53;1.10;;;9.40;99.90;;;;;;5097418;28;20197;-46
2023/03/10 03:54:15;;;;;;;5.40;1.67;;;9.30;99.90;;;;;;5115466;28;20174;-48
2023/03/10 03:56:40;;;;;;;3.63;1.27;;;9.30;99.90;;;;;;5115072;28;20173;-48
2023/03/10 03:59:06;;;;;;;5.03;0.90;;;9.30;99.90;;;;;;5096695;28;20212;-46
2023/03/10 04:01:31;;;;;;;5.47;1.07;;;9.30;99.90;;;;;;5114924;28;20285;-48
2023/03/10 04:03:57;;;;;;;2.73;0.93;;;9.30;99.90;;;;;;5114860;28;20179;-47
2023/03/10 04:06:23;;;;;;;7.63;1.13;;;9.30;99.90;;;;;;5114952;28;20200;-46
2023/03/10 04:08:49;;;;;;;8.67;1.57;;;9.20;99.90;;;;;;5114842;28;20572;-49
2023/03/10 04:11:15;;;;;;;6.87;1.60;;;9.20;99.90;;;;;;5114925;28;20203;-48
2023/03/10 04:13:42;;;;;;;6.40;1.17;;;9.20;99.90;;;;;;5115222;28;20174;-48
2023/03/10 04:16:08;;;;;;;6.93;1.10;;;9.20;99.90;;;;;;5114646;28;20177;-50
2023/03/10 04:18:33;;;;;;;6.33;1.30;;;9.20;99.90;;;;;;5114494;28;20251;-49
2023/03/10 04:20:59;;;;;;;4.87;1.20;;;9.20;99.90;;;;;;5114702;28;20695;-48
2023/03/10 04:23:24;;;;;;;9.20;1.60;;;9.20;99.90;;;;;;5116460;28;20178;-50
2023/03/10 04:25:50;;;;;;;5.03;1.00;;;9.10;99.90;;;;;;5114444;28;20272;-50
2023/03/10 04:28:15;;;;;;;7.43;1.40;;;9.10;99.90;;;;;;5114671;28;20180;-48
2023/03/10 04:30:43;;;;;;;5.90;1.33;;;9.10;99.90;;;;;;5115029;28;20288;-48
2023/03/10 04:33:10;;;;;;;8.97;1.27;;;9.10;99.90;;;;;;5114648;28;20312;-50
2023/03/10 04:35:40;;;;;;;6.37;1.30;;;9.10;99.90;;;;;;5114411;28;20199;-50
2023/03/10 04:38:05;;;;;;;9.30;1.63;;;9.10;99.90;;;;;;5095960;28;20566;-50
2023/03/10 04:40:31;;;;;;;11.63;1.90;;;9.10;99.90;;;;;;5114126;28;20194;-49
2023/03/10 04:42:56;;;;;;;9.00;1.40;;;9.10;99.90;;;;;;5114403;28;20178;-50
2023/03/10 04:45:22;;;;;;;8.43;1.50;;;9.10;99.90;;;;;;5114136;28;20180;-50
2023/03/10 04:47:47;;;;;;;7.87;1.70;;;9.20;99.90;;;;;;5114359;28;20544;-49
2023/03/10 04:50:16;;;;;;;6.60;1.57;;;9.20;99.90;;;;;;5113971;28;20565;-48
2023/03/10 04:52:44;;;;;;;9.37;1.67;;;9.20;99.90;;;;;;5114270;28;20201;-48
2023/03/10 04:55:11;;;;;;;10.07;1.60;;;9.20;99.90;;;;;;5114296;28;20581;-49
2023/03/10 04:57:37;;;;;;;6.87;1.53;;;9.20;99.90;;;;;;5113932;28;20688;-50
2023/03/10 05:00:06;;;;;;;8.80;2.37;;;9.20;99.90;;;;;;5113866;28;20275;-50
2023/03/10 05:02:32;;;;;;;6.97;1.33;;;9.20;99.90;;;;;;5113921;28;20234;-50
2023/03/10 05:05:00;;;;;;;7.70;1.60;;;9.20;99.90;;;;;;5114095;28;20199;-48
2023/03/10 05:07:26;;;;;;;13.20;2.80;;;9.10;99.90;;;;;;5114086;28;20246;-49
2023/03/10 05:09:51;;;;;;;11.43;1.83;;;9.10;99.90;;;;;;5114289;28;20280;-49
2023/03/10 05:12:17;;;;;;;4.20;1.20;;;9.10;99.90;;;;;;5114207;28;20222;-48
2023/03/10 05:14:43;;;;;;;7.33;1.40;;;9.10;99.90;;;;;;5114319;28;20185;-49
2023/03/10 05:17:10;;;;;;;7.67;1.33;;;9.10;99.90;;;;;;5113981;28;20236;-49
2023/03/10 05:19:36;;;;;;;9.13;1.67;;;9.20;99.90;;;;;;5113761;28;20185;-50
2023/03/10 05:22:03;;;;;;;6.23;1.53;;;9.20;99.90;;;;;;5117064;28;20201;-46
2023/03/10 05:24:29;;;;;;;6.77;1.40;;;9.20;99.90;;;;;;5118336;28;20553;-48
2023/03/10 05:26:54;;;;;;;5.70;1.20;;;9.20;99.90;;;;;;5117923;28;20172;-48
2023/03/10 05:29:20;;;;;;;14.07;1.43;;;9.30;99.90;;;;;;5118111;28;20267;-50
2023/03/10 05:31:46;;;;;;;9.60;1.53;;;9.30;99.90;;;;;;5118066;28;20264;-48
2023/03/10 05:34:13;;;;;;;8.40;1.47;;;9.20;99.90;;;;;;5117787;28;20218;-46
2023/03/10 05:36:39;;;;;;;6.13;1.30;;;9.20;99.90;;;;;;5117974;28;20655;-46
2023/03/10 05:39:05;;;;;;;7.60;1.30;;;9.20;99.90;;;;;;5117636;28;20295;-50
2023/03/10 05:41:31;;;;;;;7.50;1.47;;;9.20;99.90;;;;;;5117603;28;20561;-48
2023/03/10 05:43:57;;;;;;;7.97;1.77;;;9.20;99.90;;;;;;5117842;28;20185;-46
2023/03/10 05:46:23;;;;;;;7.90;1.30;;;9.20;99.90;;;;;;5117461;28;20538;-47
2023/03/10 05:48:49;;;;;;;5.50;1.13;;;9.20;99.90;;;;;;5117441;28;20208;-49
2023/03/10 05:51:16;;;;;;;8.27;1.23;;;9.20;99.90;;;;;;5117319;28;20239;-49
2023/03/10 05:53:42;;;;;;;4.90;1.17;;;9.30;99.90;;;;;;5117326;28;20195;-48
2023/03/10 05:56:10;;;;;;;8.13;1.73;;;9.30;99.90;;;;;;5117605;28;20181;-46
2023/03/10 05:58:37;;;;;;;2.77;1.00;;;9.30;99.90;;;;;;5117217;28;20238;-49
2023/03/10 06:01:03;;;;;;;4.97;1.10;;;9.20;99.90;;;;;;5117280;28;20196;-47
2023/03/10 06:03:28;;;;;;;3.33;0.80;;;9.30;99.90;;;;;;5117538;28;20545;-49
2023/03/10 06:05:58;;;;;;;4.43;1.37;;;9.20;99.90;;;;;;5117701;28;20180;-48
2023/03/10 06:08:26;;;;;;;6.67;1.50;;;9.20;99.90;;;;;;5117304;28;20181;-48
2023/03/10 06:10:52;;;;;;;9.30;1.33;;;9.20;99.90;;;;;;5117112;28;20209;-48
2023/03/10 06:13:21;;;;;;;8.23;1.37;;;9.30;99.90;;;;;;5117410;28;20181;-47
2023/03/10 06:15:55;;;;;;;6.50;1.43;;;9.30;99.90;;;;;;5116936;28;20201;-47
2023/03/10 06:18:21;;;;;;;8.60;1.13;;;9.30;99.90;;;;;;5117311;28;20684;-48
2023/03/10 06:20:47;;;;;;;4.23;1.30;;;9.30;99.90;;;;;;5117048;28;20194;-50
2023/03/10 06:23:14;;;;;;;8.40;1.60;;;9.30;99.90;;;;;;5117838;28;20188;-47
2023/03/10 06:25:40;;;;;;;4.80;1.37;;;9.30;99.90;;;;;;5116744;28;20203;-48
2023/03/10 06:28:07;;;;;;;5.53;1.50;;;9.30;99.90;;;;;;5116988;28;20595;-47
2023/03/10 06:30:33;;;;;;;8.97;1.43;;;9.30;99.90;;;;;;5117026;28;20218;-49
2023/03/10 06:32:59;;;;;;;4.47;1.53;;;9.30;99.90;;;;;;5116916;28;20181;-45
2023/03/10 06:35:26;;;;;;;5.00;1.13;;;9.30;99.90;;;;;;5117160;28;20587;-46
2023/03/10 06:37:52;;;;;;;6.10;1.37;;;9.30;99.90;;;;;;5116545;28;20210;-47
2023/03/10 06:40:17;;;;;;;5.57;1.70;;;9.30;99.90;;;;;;5116709;28;20190;-49
2023/03/10 06:42:43;;;;;;;8.30;1.73;;;9.30;99.90;;;;;;5116442;28;20582;-48
2023/03/10 06:45:13;;;;;;;7.17;1.53;;;9.30;99.90;;;;;;5116421;28;20179;-48
2023/03/10 06:47:38;;;;;;;11.23;1.40;;;9.30;99.90;;;;;;5116657;28;20231;-48
2023/03/10 06:50:04;;;;;;;6.23;1.40;;;9.30;99.90;;;;;;5116211;28;20700;-47
2023/03/10 06:52:34;;;;;;;5.93;1.20;;;9.30;99.90;;;;;;5116585;28;20188;-47
2023/03/10 06:55:03;;;;;;;6.80;1.50;;;9.30;99.90;;;;;;5116223;28;20184;-48
2023/03/10 06:57:29;;;;;;;10.77;1.40;;;9.30;99.90;;;;;;5098012;28;20212;-48
2023/03/10 06:59:54;;;;;;;7.17;1.30;;;9.30;99.90;;;;;;5116858;28;20173;-48
2023/03/10 07:02:20;;;;;;;4.70;1.57;;;9.30;99.90;;;;;;5116485;28;20174;-48
2023/03/10 07:04:46;;;;;;;6.90;1.23;;;9.30;99.90;;;;;;5116161;28;20181;-47
2023/03/10 07:07:13;;;;;;;6.57;1.47;;;9.30;99.90;;;;;;5097833;28;20271;-48
2023/03/10 07:09:38;;;;;;;6.60;1.47;;;9.40;99.90;;;;;;5116030;28;20181;-49
2023/03/10 07:12:04;;;;;;;7.57;1.83;;;9.40;99.90;;;;;;5116494;28;20188;-48
2023/03/10 07:14:30;;;;;;;4.50;1.23;;;9.40;99.90;;;;;;5116207;28;20579;-49
2023/03/10 07:16:56;;;;;;;6.10;1.40;;;9.40;99.90;;;;;;5116050;28;20635;-48
2023/03/10 07:19:22;;;;;;;6.40;1.50;;;9.50;99.90;;;;;;5115795;28;20755;-47
2023/03/10 07:21:48;;;;;;;8.47;2.23;;;9.50;99.90;;;;;;5116154;28;20192;-49
2023/03/10 07:24:14;;;;;;;7.03;1.90;;;9.50;99.90;;;;;;5115958;28;20192;-48
2023/03/10 07:26:40;;;;;;;8.27;2.27;;;9.50;99.90;;;;;;5115614;28;20169;-47
2023/03/10 07:29:05;;;;;;;7.90;1.67;;;9.60;99.90;;;;;;5115749;28;20171;-48
2023/03/10 07:31:33;;;;;;;7.10;1.37;;;9.60;99.90;;;;;;5097197;28;20204;-48
2023/03/10 07:34:00;;;;;;;11.80;1.87;;;9.60;99.90;;;;;;5097249;28;20188;-48
2023/03/10 07:36:26;;;;;;;12.03;1.50;;;9.60;99.90;;;;;;5115679;28;20313;-48
2023/03/10 07:38:52;;;;;;;7.93;1.80;;;9.60;99.90;;;;;;5096975;28;20667;-50
2023/03/10 07:41:20;;;;;;;6.00;1.50;;;9.60;99.90;;;;;;5115374;28;20238;-50
2023/03/10 07:43:46;;;;;;;8.60;1.40;;;9.60;99.90;;;;;;5114705;28;20316;-49
2023/03/10 07:46:13;;;;;;;5.93;1.30;;;9.60;99.90;;;;;;5115244;28;20181;-50
2023/03/10 07:48:39;;;;;;;7.73;1.80;;;9.60;99.90;;;;;;5115175;28;20192;-50
2023/03/10 07:51:05;;;;;;;6.83;1.53;;;9.60;99.90;;;;;;5115357;28;20196;-49
2023/03/10 07:53:32;;;;;;;7.40;1.23;;;9.70;99.90;;;;;;5115397;28;20180;-51
2023/03/10 07:55:57;;;;;;;7.97;1.17;;;9.70;99.90;;;;;;5115891;28;20188;-49
2023/03/10 07:58:23;;;;;;;7.67;1.50;;;9.70;99.90;;;;;;5115196;28;20204;-48
2023/03/10 08:00:56;;;;;;;4.80;1.30;;;9.80;99.90;;;;;;5115162;28;20200;-48
2023/03/10 08:03:23;;;;;;;5.50;1.17;;;9.80;99.90;;;;;;5115093;28;20180;-49
2023/03/10 08:05:49;;;;;;;5.67;0.90;;;9.90;99.90;;;;;;5114840;28;20169;-49
2023/03/10 08:08:15;;;;;;;6.57;1.50;;;9.90;99.90;;;;;;5114890;28;20176;-51
2023/03/10 08:10:40;;;;;;;7.33;1.50;;;9.90;99.90;;;;;;5114757;28;20253;-50
2023/03/10 08:13:06;;;;;;;5.80;1.50;;;10.00;99.90;;;;;;5114788;28;20180;-47
2023/03/10 08:15:31;;;;;;;12.00;1.70;;;10.00;99.90;;;;;;5114735;28;20271;-50
2023/03/10 08:17:57;;;;;;;6.43;2.07;;;10.10;99.90;;;;;;5114921;28;20194;-49
2023/03/10 08:20:23;;;;;;;8.37;1.70;;;10.20;99.90;;;;;;5114553;28;20193;-49
2023/03/10 08:22:51;;;;;;;8.60;2.00;;;10.20;99.90;;;;;;5115416;28;20551;-48
2023/03/10 08:25:16;;;;;;;14.73;2.30;;;10.20;99.90;;;;;;5096427;28;20200;-49
2023/03/10 08:27:42;;;;;;;11.60;1.73;;;10.30;99.90;;;;;;5114430;28;20180;-49
2023/03/10 08:30:09;;;;;;;9.40;2.03;;;10.40;99.90;;;;;;5114314;28;20261;-50
2023/03/10 08:32:35;;;;;;;8.77;1.53;;;10.40;99.90;;;;;;5114248;28;20704;-49
2023/03/10 08:35:00;;;;;;;8.23;1.77;;;10.30;99.90;;;;;;5114667;28;20189;-49
2023/03/10 08:37:26;;;;;;;12.10;2.37;;;10.40;99.90;;;;;;5114182;28;20215;-50
2023/03/10 08:39:53;;;;;;;16.40;2.67;;;10.50;99.90;;;;;;5114155;28;20173;-50
2023/03/10 08:42:18;;;;;;;14.33;2.47;;;10.60;99.90;;;;;;5114561;28;20174;-50
2023/03/10 08:44:44;;;;;;;9.70;2.00;;;10.70;99.90;;;;;;5114497;28;20525;-48
2023/03/10 08:47:09;;;;;;;11.00;1.70;;;10.70;99.90;;;;;;5114080;28;20216;-49
2023/03/10 08:49:36;;;;;;;11.23;2.40;;;10.60;99.90;;;;;;5095896;28;20187;-49
2023/03/10 08:52:02;;;;;;;9.30;2.00;;;10.70;99.90;;;;;;5114047;28;20693;-48
2023/03/10 08:54:29;;;;;;;10.87;1.83;;;10.70;99.90;;;;;;5114048;28;20193;-47
2023/03/10 08:56:54;;;;;;;11.90;2.27;;;10.70;99.90;;;;;;5113330;28;20227;-50
2023/03/10 08:59:20;;;;;;;10.60;1.83;;;10.80;99.90;;;;;;5114310;28;20178;-49
2023/03/10 09:01:46;;;;;;;11.30;2.27;;;10.90;99.90;;;;;;5114014;28;20201;-50
2023/03/10 09:04:12;;;;;;;12.30;2.80;;;10.90;99.90;;;;;;5114228;28;20193;-50
2023/03/10 09:06:38;;;;;;;9.00;2.00;;;11.00;99.90;;;;;;5114444;28;20571;-49
2023/03/10 09:09:05;;;;;;;9.73;2.23;;;11.10;99.90;;;;;;5114273;28;20181;-49
2023/03/10 09:11:34;;;;;;;6.20;1.83;;;11.20;99.90;;;;;;5113806;28;20190;-49
2023/03/10 09:14:00;;;;;;;8.17;1.90;;;11.20;99.90;;;;;;5113789;28;20181;-49
2023/03/10 09:16:27;;;;;;;8.77;1.43;;;11.30;99.90;;;;;;5113788;28;20543;-51
2023/03/10 09:18:55;;;;;;;11.87;1.90;;;11.30;99.90;;;;;;5095498;28;20285;-49
2023/03/10 09:21:21;;;;;;;6.33;1.57;;;11.30;99.90;;;;;;5095412;28;20221;-48
2023/03/10 09:23:48;;;;;;;11.77;2.40;;;11.40;99.90;;;;;;5113802;28;20178;-49
2023/03/10 09:26:14;;;;;;;5.53;1.73;;;11.40;99.90;;;;;;5114436;28;20188;-50
2023/03/10 09:28:41;;;;;;;6.10;1.50;;;11.50;99.90;;;;;;5114494;28;20202;-50
2023/03/10 09:31:07;;;;;;;8.47;1.83;;;11.50;99.90;;;;;;5114074;28;20194;-51
2023/03/10 09:33:34;;;;;;;8.33;1.43;;;11.60;99.90;;;;;;5113989;28;20206;-53
2023/03/10 09:36:01;;;;;;;6.73;1.47;;;11.70;99.90;;;;;;5113720;28;20177;-51
2023/03/10 09:38:27;;;;;;;6.37;1.30;;;11.80;99.90;;;;;;5113550;28;20730;-51
2023/03/10 09:41:12;;;;;;;5.20;1.60;;;11.90;99.90;;;;;;5113903;28;20190;-53
2023/03/10 09:43:43;;;;;;;5.87;1.30;;;11.90;99.90;;;;;;5113859;28;20597;-51
2023/03/10 09:46:44;;;;;;;7.93;1.40;;;12.00;99.90;;;;;;5114507;28;20188;-51
2023/03/10 09:49:17;;;;;;;3.97;1.10;;;12.10;99.90;;;;;;5087397;28;20187;-52
2023/03/10 09:51:47;;;;;;;2.53;0.97;;;12.10;99.90;;;;;;5113734;28;20285;-54
2023/03/10 09:54:44;;;;;;;6.50;1.20;;;12.20;99.90;;;;;;5113768;28;20174;-54
2023/03/10 09:57:17;;;;;;;2.53;0.97;;;12.20;99.90;;;;;;5113728;28;20245;-53
2023/03/10 09:59:45;;;;;;;4.73;1.10;;;12.20;99.90;;;;;;5113450;28;20644;-53
2023/03/10 10:02:34;;;;;;;4.50;1.10;;;12.20;99.90;;;;;;5113789;28;20269;-54
2023/03/10 10:05:05;;;;;;;8.40;1.70;;;12.20;99.90;;;;;;5113746;28;20679;-54
2023/03/10 10:07:45;;;;;;;4.00;1.17;;;12.20;99.90;;;;;;5115125;28;20231;-52
2023/03/10 10:10:16;;;;;;;3.63;1.30;;;12.30;99.90;;;;;;5117551;28;20216;-54
2023/03/10 10:12:43;;;;;;;4.73;1.63;;;12.30;99.90;;;;;;5117852;28;20186;-53
2023/03/10 10:15:26;;;;;;;6.93;1.30;;;12.30;99.90;;;;;;5117176;28;20174;-54
2023/03/10 10:18:13;;;;;;;6.53;1.20;;;12.20;99.90;;;;;;5117181;28;20223;-53
2023/03/10 10:20:43;;;;;;;4.53;1.00;;;12.20;99.90;;;;;;5117444;28;20605;-53
2023/03/10 10:23:20;;;;;;;4.47;1.40;;;12.00;99.90;;;;;;5117322;28;20169;-53
2023/03/10 10:25:46;;;;;;;3.80;1.00;;;11.90;99.90;;;;;;5098596;28;20193;-52
2023/03/10 10:28:25;;;;;;;5.60;1.33;;;12.00;99.90;;;;;;5117006;28;20232;-53
2023/03/10 10:30:51;;;;;;;4.60;1.10;;;11.90;99.90;;;;;;5117053;28;20255;-54
2023/03/10 10:33:16;;;;;;;4.23;0.70;;;11.90;99.90;;;;;;5116855;28;20182;-53
2023/03/10 10:35:57;;;;;;;5.87;1.50;;;11.90;99.90;;;;;;5116998;28;20186;-53
2023/03/10 10:38:27;;;;;;;7.10;0.97;;;11.80;99.90;;;;;;5117265;28;20208;-52
2023/03/10 10:41:03;;;;;;;3.97;1.10;;;11.80;99.90;;;;;;5117336;28;20649;-53
2023/03/10 10:43:29;;;;;;;3.30;0.80;;;11.80;99.90;;;;;;5116655;28;20182;-52
2023/03/10 10:46:07;;;;;;;2.73;0.83;;;11.90;99.90;;;;;;5117121;28;20181;-51
2023/03/10 10:48:40;;;;;;;3.17;1.10;;;11.90;99.90;;;;;;5116896;28;20181;-53
2023/03/10 10:51:20;;;;;;;4.47;0.60;;;11.90;99.90;;;;;;5116907;28;20277;-53
2023/03/10 10:53:46;;;;;;;4.20;0.70;;;11.80;99.90;;;;;;5116652;28;20203;-53
2023/03/10 10:56:15;;;;;;;3.33;1.00;;;11.70;99.90;;;;;;5116437;28;20273;-53
2023/03/10 10:58:44;;;;;;;2.40;1.30;;;11.70;99.90;;;;;;5116422;28;20293;-54
2023/03/10 11:01:12;;;;;;;3.83;0.90;;;11.60;99.90;;;;;;5116329;28;20218;-53
2023/03/10 11:03:47;;;;;;;3.50;1.20;;;11.50;99.90;;;;;;5116395;28;20175;-53
2023/03/10 11:06:28;;;;;;;3.23;0.70;;;11.40;99.90;;;;;;5116116;28;20170;-52
2023/03/10 11:09:10;;;;;;;3.30;0.77;;;11.30;99.90;;;;;;5116384;28;20159;-53
2023/03/10 11:11:38;;;;;;;3.50;0.83;;;11.20;99.90;;;;;;5115929;28;20262;-51
2023/03/10 11:14:09;;;;;;;1.03;0.73;;;11.10;99.90;;;;;;5116011;28;20178;-52
2023/03/10 11:16:43;;;;;;;2.57;0.60;;;11.00;99.90;;;;;;5115839;28;20174;-51
2023/03/10 11:19:37;;;;;;;2.00;0.73;;;10.90;99.90;;;;;;5115067;28;20215;-50
2023/03/10 11:22:22;;;;;;;7.20;0.80;;;10.80;99.90;;;;;;5115640;28;20250;-51
2023/03/10 11:25:01;;;;;;;1.50;0.60;;;10.80;99.90;;;;;;5116503;28;20198;-49
2023/03/10 11:27:50;;;;;;;2.73;0.60;;;10.70;99.90;;;;;;5115912;28;20174;-50
2023/03/10 11:30:30;;;;;;;1.57;0.60;;;10.70;99.90;;;;;;5115489;28;20221;-49
2023/03/10 11:33:12;;;;;;;3.73;0.70;;;10.80;99.90;;;;;;5115653;28;20614;-48
2023/03/10 11:35:44;;;;;;;2.97;0.50;;;10.70;99.90;;;;;;5118335;28;20176;-49
2023/03/10 11:38:28;;;;;;;0.70;0.50;;;10.70;99.90;;;;;;5102037;28;20205;-48
2023/03/10 11:40:57;;;;;;;2.47;0.60;;;10.70;99.90;;;;;;5120373;28;20198;-48
2023/03/10 11:43:32;;;;;;;3.13;0.50;;;10.60;99.90;;;;;;5116361;28;20529;-51
2023/03/10 11:46:04;;;;;;;1.63;0.60;;;10.60;99.90;;;;;;5115625;28;20706;-51
2023/03/10 11:48:46;;;;;;;1.17;0.47;;;10.60;99.90;;;;;;5121180;28;20221;-50
2023/03/10 11:51:35;;;;;;;1.43;0.50;;;10.70;99.90;;;;;;5125311;28;20193;-49
2023/03/10 11:54:14;;;;;;;0.77;0.40;;;10.70;99.90;;;;;;5106968;28;20681;-50
2023/03/10 11:56:41;;;;;;;2.30;0.50;;;10.70;99.90;;;;;;5115502;28;20166;-52
2023/03/10 11:59:21;;;;;;;1.63;0.70;;;10.80;99.90;;;;;;5115164;28;20202;-50
2023/03/10 12:01:52;;;;;;;3.57;0.63;;;10.80;99.90;;;;;;5115312;28;20197;-51
2023/03/10 12:04:34;;;;;;;1.27;0.60;;;10.90;99.90;;;;;;5115170;28;20179;-50
2023/03/10 12:07:11;;;;;;;2.10;0.47;;;11.00;99.90;;;;;;5115124;28;20174;-51
2023/03/10 12:09:53;;;;;;;0.57;0.40;;;11.00;99.90;;;;;;5115162;28;20166;-50
2023/03/10 12:12:43;;;;;;;1.70;0.50;;;10.90;99.90;;;;;;5116757;28;20186;-50
2023/03/10 12:15:16;;;;;;;1.50;0.30;;;10.90;99.90;;;;;;5114704;28;20227;-50
2023/03/10 12:17:41;;;;;;;0.93;0.40;;;10.80;99.90;;;;;;5114880;28;20205;-52
2023/03/10 12:20:13;;;;;;;1.10;0.50;;;10.70;99.90;;;;;;5114593;28;20202;-51
2023/03/10 12:22:49;;;;;;;0.53;0.37;;;10.70;99.90;;;;;;5115398;28;20178;-51
2023/03/10 12:25:31;;;;;;;1.10;0.40;;;10.80;99.90;;;;;;5114483;28;20259;-51
2023/03/10 12:28:15;;;;;;;0.40;0.23;;;10.70;99.90;;;;;;5114785;28;20265;-51
2023/03/10 12:30:59;;;;;;;2.03;0.40;;;10.70;99.90;;;;;;5116690;28;20676;-50
2023/03/10 12:33:32;;;;;;;0.30;0.30;;;10.70;99.90;;;;;;5118307;28;20182;-50
2023/03/10 12:36:23;;;;;;;0.73;0.40;;;10.70;99.90;;;;;;5114607;28;20189;-49
2023/03/10 12:39:25;;;;;;;0.33;0.33;;;10.70;99.90;;;;;;5114593;28;20202;-51
2023/03/10 12:41:58;;;;;;;0.77;0.50;;;10.70;99.90;;;;;;5114092;28;20197;-49
2023/03/10 12:44:33;;;;;;;0.40;0.30;;;10.70;99.90;;;;;;5114323;28;20174;-51
2023/03/10 12:47:29;;;;;;;0.70;0.47;;;10.70;99.90;;;;;;5114556;28;20248;-50
2023/03/10 12:50:15;;;;;;;0.57;0.40;;;10.70;99.90;;;;;;5078781;28;20194;-50
2023/03/10 12:52:43;;;;;;;0.80;0.47;;;10.70;99.90;;;;;;5114812;28;20190;-47
2023/03/10 12:55:18;;;;;;;1.83;1.30;;;10.70;99.90;;;;;;5095792;28;20178;-47
2023/03/10 12:57:46;;;;;;;0.50;0.50;;;10.60;99.90;;;;;;5114160;28;20202;-50
2023/03/10 13:00:12;;;;;;;0.73;0.67;;;10.60;99.90;;;;;;5113907;28;20197;-47
2023/03/10 13:02:48;;;;;;;0.30;0.30;;;10.60;99.90;;;;;;5114001;28;20166;-48